메인 페이지
METAR-TAF:

METAR-TAF

공항 :

엘도라도 국제공항

보고타, 콜롬비아

위도: 04-43N, 경도: 074-09W, 고도: 2547m

현재 날씨관측

예보는 1 시간 8분 전, 07:00시(UTC)에 발표되었습니다.
여러 방향의 바람 2kt
온도 8°C
습도 93%
기압 1028 hPa
시정 10km 이상
고도 2000ft 상공 구름 조금
고도 20000ft 상공 구름 보통

METAR: SKBO 150700Z VRB02KT 9999 FEW020 SCT200 08/07 A3036

시각: 03:08 (08:08 UTC)

예보

예보는 3 시간 8분 전, 05:00시(UTC)에 발표되었습니다.
예보 대상 시간: 15일 06시부터 16일 06시까지 (UTC)
북동5kt
시정 10km 이상
고도 2000ft 상공 구름 조금
고도 10000ft 상공 구름 보통
일시적
15일 09시부터 15일 13시까지 (UTC)
시정: 6000m
고도 1000ft 상공 구름 보통
시계 내 안개
전환 중
15일 16시부터 15일 18시까지 (UTC)
10kt
일시적
15일 19시부터 15일 22시까지 (UTC)
고도 2000ft 상공 구름 많음
전환 중
16일 00시부터 16일 02시까지 (UTC)
북북서5kt

TAF: SKBO 150500Z 1506/1606 04005KT 9999 FEW020 SCT100 TEMPO 1509/1513 6000 VCFG SCT010 BECMG 1516/1518 26010KT TEMPO 1519/1522 BKN020 BECMG 1600/1602 34005KT TX20/1518Z TN05/1511Z

4,000개 이상의 공항 관측 자료 및 예보 (METAR 및 TAF 보고).

지도상에서 검색 가능한 기상관측소가 노란 점과 빨간 점으로 표시되어 있습니다.

기상관측소 명을 보려면 표시 위로 마우스를 이동하세요.

날씨 관측과 예보를 보려면 클릭하세요.

지도 변경 : 확대하려면 엑스 표시가 있는 녹색 버튼, 축소하려면 빼기 표시가 있는 녹색 버튼, 다음 페이지의 지도를 보려면 녹색 화살표를 클릭하세요.


METAR-TAF: